Time;durP1;ratioP1;P1;durP2;ratioP2;P2;SDS_P1;SDS_P2;PMS_P1;PMS_P2;Temp;Humidity;BMP_temperature;BMP_pressure;BME280_temperature;BME280_humidity;BME280_pressure;Samples;Min_cycle;Max_cycle;Signal;HPM_P1;HPM_P2
2022/06/09 00:00:05;;;;;;;3.90;0.95;;;;;20.70;100609.00;;;;5065253;28;20215;-76
2022/06/09 00:02:32;;;;;;;3.78;1.15;;;;;20.70;100610.00;;;;5067796;28;20211;-76
2022/06/09 00:05:00;;;;;;;5.93;1.30;;;;;20.70;100611.00;;;;5062374;28;20199;-76
2022/06/09 00:07:27;;;;;;;4.68;1.80;;;;;20.70;100613.00;;;;5059027;28;20205;-76
2022/06/09 00:09:59;;;;;;;5.93;0.95;;;;;20.70;100609.00;;;;5061276;28;20199;-76
2022/06/09 00:12:28;;;;;;;4.65;1.00;;;;;20.70;100613.00;;;;5061484;28;20692;-76
2022/06/09 00:14:57;;;;;;;2.53;1.30;;;;;20.70;100619.00;;;;5061641;28;20198;-76
2022/06/09 00:17:25;;;;;;;6.50;2.42;;;;;20.70;100620.00;;;;5060458;28;20195;-77
2022/06/09 00:19:52;;;;;;;2.58;1.13;;;;;20.70;100619.00;;;;5062958;28;20230;-76
2022/06/09 00:22:20;;;;;;;4.30;1.20;;;;;20.70;100620.00;;;;5060624;28;20202;-76
2022/06/09 00:24:47;;;;;;;4.45;1.30;;;;;20.70;100614.00;;;;5059390;28;20195;-77
2022/06/09 00:27:15;;;;;;;5.50;1.58;;;;;20.70;100610.00;;;;5063060;28;20206;-76
2022/06/09 00:29:42;;;;;;;3.97;1.42;;;;;20.60;100623.00;;;;5064961;28;20199;-77
2022/06/09 00:32:11;;;;;;;9.93;1.65;;;;;20.60;100630.00;;;;5066646;28;20195;-76
2022/06/09 00:34:38;;;;;;;7.57;1.73;;;;;20.60;100626.00;;;;5060217;28;20198;-77
2022/06/09 00:37:05;;;;;;;5.05;1.00;;;;;20.60;100631.00;;;;5059871;28;20203;-76
2022/06/09 00:39:33;;;;;;;10.32;1.40;;;;;20.60;100631.00;;;;5059380;28;20210;-76
2022/06/09 00:42:01;;;;;;;8.13;1.60;;;;;20.60;100640.00;;;;5060321;28;20218;-76
2022/06/09 00:44:30;;;;;;;2.67;1.40;;;;;20.60;100641.00;;;;5059327;28;20196;-77
2022/06/09 00:47:02;;;;;;;7.70;1.30;;;;;20.60;100645.00;;;;5058713;28;20191;-77
2022/06/09 00:49:34;;;;;;;4.75;1.40;;;;;20.50;100648.00;;;;5058575;28;20199;-77
2022/06/09 00:52:03;;;;;;;4.07;1.30;;;;;20.60;100651.00;;;;5062402;28;20734;-77
2022/06/09 00:54:36;;;;;;;8.45;1.88;;;;;20.50;100649.00;;;;5063359;28;20199;-77
2022/06/09 00:57:08;;;;;;;6.93;1.90;;;;;20.50;100655.00;;;;5065502;28;20229;-76
2022/06/09 00:59:37;;;;;;;6.07;1.60;;;;;20.50;100653.00;;;;5057261;28;20203;-76
2022/06/09 01:02:08;;;;;;;6.13;1.50;;;;;20.50;100655.00;;;;5065904;28;20668;-76
2022/06/09 01:04:37;;;;;;;4.80;1.30;;;;;20.50;100663.00;;;;5058802;28;20199;-77
2022/06/09 01:07:09;;;;;;;7.25;1.60;;;;;20.50;100659.00;;;;5058821;28;20679;-77
2022/06/09 01:09:37;;;;;;;7.15;1.48;;;;;20.50;100655.00;;;;5057183;28;20668;-77
2022/06/09 01:12:26;;;;;;;6.47;1.23;;;;;20.40;100663.00;;;;5059713;28;20199;-77
2022/06/09 01:14:59;;;;;;;3.95;1.27;;;;;20.40;100663.00;;;;5059756;28;20197;-77
2022/06/09 01:17:33;;;;;;;5.70;1.55;;;;;20.40;100667.00;;;;5057915;28;20195;-77
2022/06/09 01:20:15;;;;;;;4.45;1.40;;;;;20.30;100666.00;;;;5061510;28;20230;-76
2022/06/09 01:23:05;;;;;;;4.43;1.60;;;;;20.30;100674.00;;;;5059045;28;20210;-77
2022/06/09 01:25:59;;;;;;;8.48;1.30;;;;;20.30;100672.00;;;;5059493;28;20213;-77
2022/06/09 01:28:57;;;;;;;9.35;2.17;;;;;20.30;100672.00;;;;5062633;28;20210;-77
2022/06/09 01:31:31;;;;;;;2.35;0.93;;;;;20.30;100676.00;;;;5067600;28;20762;-77
2022/06/09 01:34:08;;;;;;;6.68;1.77;;;;;20.30;100674.00;;;;5067088;28;20202;-77
2022/06/09 01:36:41;;;;;;;5.40;1.35;;;;;20.30;100671.00;;;;5067468;28;20203;-77
2022/06/09 01:39:08;;;;;;;2.50;1.08;;;;;20.30;100670.00;;;;5066933;28;20244;-76
2022/06/09 01:41:36;;;;;;;6.25;2.03;;;;;20.30;100677.00;;;;5065436;28;20992;-77
2022/06/09 01:44:04;;;;;;;4.38;1.70;;;;;20.30;100678.00;;;;5064881;28;20934;-76
2022/06/09 01:46:35;;;;;;;6.03;2.05;;;;;20.30;100678.00;;;;5063635;28;20199;-77
2022/06/09 01:49:06;;;;;;;5.38;1.70;;;;;20.20;100685.00;;;;5061183;28;20191;-77
2022/06/09 01:51:36;;;;;;;4.15;1.80;;;;;20.20;100681.00;;;;5064436;28;20199;-77
2022/06/09 01:54:07;;;;;;;8.73;1.70;;;;;20.20;100684.00;;;;5067280;28;20285;-77
2022/06/09 01:56:39;;;;;;;3.10;1.40;;;;;20.20;100688.00;;;;5070012;28;20202;-77
2022/06/09 01:59:10;;;;;;;5.32;1.92;;;;;20.20;100687.00;;;;5062914;28;20209;-77
2022/06/09 02:01:43;;;;;;;3.45;1.38;;;;;20.10;100686.00;;;;5063405;28;21036;-77
2022/06/09 02:04:16;;;;;;;6.05;1.60;;;;;20.10;100682.00;;;;5050614;28;20191;-77
2022/06/09 02:06:44;;;;;;;4.82;1.60;;;;;20.10;100685.00;;;;5066903;28;20206;-77
2022/06/09 02:09:12;;;;;;;3.97;1.45;;;;;20.10;100687.00;;;;5067271;28;20218;-77
2022/06/09 02:11:48;;;;;;;3.67;1.70;;;;;20.00;100696.00;;;;5067595;28;20202;-77
2022/06/09 02:14:17;;;;;;;3.80;1.60;;;;;20.10;100700.00;;;;5067577;28;20198;-77
2022/06/09 02:16:46;;;;;;;8.70;1.70;;;;;20.00;100700.00;;;;5062603;28;20218;-77
2022/06/09 02:19:13;;;;;;;3.25;1.55;;;;;20.00;100698.00;;;;5065119;28;20202;-76
2022/06/09 02:21:42;;;;;;;4.95;1.30;;;;;20.00;100706.00;;;;5064468;28;20214;-77
2022/06/09 02:24:09;;;;;;;3.58;1.50;;;;;20.00;100709.00;;;;5054948;28;20199;-77
2022/06/09 02:26:37;;;;;;;8.65;2.03;;;;;20.00;100716.00;;;;5066977;28;20203;-77
2022/06/09 02:29:05;;;;;;;5.88;1.83;;;;;20.00;100714.00;;;;5063711;28;20187;-77
2022/06/09 02:31:34;;;;;;;4.70;1.50;;;;;19.90;100716.00;;;;5063444;28;20679;-77
2022/06/09 02:34:03;;;;;;;6.15;1.42;;;;;19.90;100730.00;;;;5066944;28;20837;-77
2022/06/09 02:36:31;;;;;;;6.60;1.85;;;;;19.90;100730.00;;;;5069847;28;20210;-77
2022/06/09 02:38:58;;;;;;;3.28;1.33;;;;;19.90;100729.00;;;;5062004;28;20195;-77
2022/06/09 02:41:25;;;;;;;2.45;1.27;;;;;19.80;100724.00;;;;5071402;28;20241;-77
2022/06/09 02:43:53;;;;;;;5.63;1.42;;;;;19.80;100730.00;;;;5070918;28;20202;-77
2022/06/09 02:46:20;;;;;;;2.85;1.30;;;;;19.80;100731.00;;;;5071824;28;20191;-77
2022/06/09 02:48:47;;;;;;;5.10;1.45;;;;;19.80;100741.00;;;;5070177;28;20199;-77
2022/06/09 02:51:25;;;;;;;2.35;1.20;;;;;19.70;100741.00;;;;5067224;28;20770;-77
2022/06/09 02:53:52;;;;;;;2.10;1.30;;;;;19.70;100745.00;;;;5071171;28;20193;-77
2022/06/09 02:56:20;;;;;;;3.15;1.55;;;;;19.70;100748.00;;;;5071287;28;20195;-77
2022/06/09 02:58:47;;;;;;;3.58;1.50;;;;;19.60;100743.00;;;;5068876;28;20210;-77
2022/06/09 03:01:15;;;;;;;3.40;1.73;;;;;19.60;100752.00;;;;5070719;28;20241;-77
2022/06/09 03:03:42;;;;;;;1.98;1.27;;;;;19.60;100748.00;;;;5070270;28;20195;-77
2022/06/09 03:06:10;;;;;;;3.97;1.60;;;;;19.60;100749.00;;;;5069713;28;20658;-77
2022/06/09 03:08:39;;;;;;;5.18;1.80;;;;;19.60;100751.00;;;;5065460;28;20568;-77
2022/06/09 03:11:10;;;;;;;4.57;1.67;;;;;19.50;100756.00;;;;5070736;28;20231;-77
2022/06/09 03:13:38;;;;;;;2.40;1.60;;;;;19.50;100752.00;;;;5070309;28;20215;-77
2022/06/09 03:16:10;;;;;;;4.15;1.90;;;;;19.50;100759.00;;;;5070257;28;20191;-77
2022/06/09 03:18:38;;;;;;;3.55;1.55;;;;;19.50;100757.00;;;;5070700;28;20660;-77
2022/06/09 03:21:05;;;;;;;1.85;1.50;;;;;19.40;100774.00;;;;5069122;28;20231;-77
2022/06/09 03:23:33;;;;;;;2.92;1.67;;;;;19.40;100774.00;;;;5069900;28;20211;-77
2022/06/09 03:26:02;;;;;;;2.30;1.50;;;;;19.40;100775.00;;;;5068950;28;20202;-77
2022/06/09 03:28:29;;;;;;;1.50;1.02;;;;;19.40;100786.00;;;;5069333;28;20206;-77
2022/06/09 03:30:58;;;;;;;2.55;1.27;;;;;19.40;100780.00;;;;5069809;28;20652;-77
2022/06/09 03:33:25;;;;;;;5.65;2.45;;;;;19.40;100787.00;;;;5070043;28;20252;-77
2022/06/09 03:35:53;;;;;;;1.55;1.20;;;;;19.40;100797.00;;;;5069451;28;20202;-77
2022/06/09 03:38:20;;;;;;;6.30;1.58;;;;;19.40;100800.00;;;;5066517;28;20199;-77
2022/06/09 03:40:47;;;;;;;5.22;1.45;;;;;19.30;100799.00;;;;5068140;28;20708;-77
2022/06/09 03:43:16;;;;;;;4.65;1.20;;;;;19.30;100797.00;;;;5065695;28;20316;-77
2022/06/09 03:45:43;;;;;;;3.38;1.50;;;;;19.30;100795.00;;;;5067769;28;20202;-77
2022/06/09 03:48:11;;;;;;;1.15;0.90;;;;;19.30;100802.00;;;;5066405;28;20207;-77
2022/06/09 03:50:38;;;;;;;2.55;1.33;;;;;19.40;100809.00;;;;5066425;28;20191;-77
2022/06/09 03:53:06;;;;;;;1.23;1.02;;;;;19.40;100812.00;;;;5068904;28;20202;-77
2022/06/09 03:55:36;;;;;;;2.85;1.20;;;;;19.30;100812.00;;;;5068484;28;20206;-77
2022/06/09 03:58:04;;;;;;;2.55;1.02;;;;;19.40;100808.00;;;;5059565;28;20371;-77
2022/06/09 04:00:33;;;;;;;2.70;1.20;;;;;19.40;100814.00;;;;5067789;28;20199;-77
2022/06/09 04:03:01;;;;;;;2.47;1.50;;;;;19.40;100815.00;;;;5069055;28;20207;-77
2022/06/09 04:05:29;;;;;;;3.08;1.35;;;;;19.40;100818.00;;;;5067528;28;20207;-77
2022/06/09 04:07:58;;;;;;;1.90;1.33;;;;;19.40;100825.00;;;;5069399;28;20206;-76
2022/06/09 04:10:29;;;;;;;2.53;1.50;;;;;19.40;100827.00;;;;5069473;28;20214;-77
2022/06/09 04:12:57;;;;;;;3.22;1.40;;;;;19.50;100826.00;;;;5068707;28;20318;-76
2022/06/09 04:15:25;;;;;;;4.50;1.73;;;;;19.50;100834.00;;;;5065575;28;20207;-77
2022/06/09 04:17:54;;;;;;;1.48;1.30;;;;;19.60;100846.00;;;;5057165;28;20927;-77
2022/06/09 04:20:24;;;;;;;1.73;1.50;;;;;19.60;100846.00;;;;5069356;28;20226;-77
2022/06/09 04:22:51;;;;;;;1.35;1.20;;;;;19.60;100846.00;;;;5069384;28;20210;-77
2022/06/09 04:25:20;;;;;;;3.53;1.58;;;;;19.70;100857.00;;;;5068915;28;20206;-77
2022/06/09 04:27:48;;;;;;;2.38;1.67;;;;;19.70;100866.00;;;;5069281;28;20209;-77
2022/06/09 04:30:16;;;;;;;1.67;1.35;;;;;19.70;100865.00;;;;5067948;28;20191;-77
2022/06/09 04:32:44;;;;;;;2.22;1.15;;;;;19.80;100876.00;;;;5065780;28;20793;-77
2022/06/09 04:35:13;;;;;;;2.30;1.10;;;;;19.80;100870.00;;;;5068867;28;20187;-77
2022/06/09 04:40:26;;;;;;;3.10;1.65;;;;;19.90;100881.00;;;;5068688;28;20210;-77
2022/06/09 04:42:54;;;;;;;2.45;1.40;;;;;19.90;100883.00;;;;5068341;28;20234;-77
2022/06/09 04:45:21;;;;;;;1.85;1.27;;;;;20.00;100890.00;;;;5067215;28;20199;-77
2022/06/09 04:47:49;;;;;;;2.70;1.30;;;;;20.00;100891.00;;;;5060873;28;20660;-77
2022/06/09 04:50:18;;;;;;;1.60;1.20;;;;;20.10;100887.00;;;;5064511;28;20207;-77
2022/06/09 04:52:46;;;;;;;3.85;1.23;;;;;20.10;100888.00;;;;5067418;28;20728;-77
2022/06/09 04:55:13;;;;;;;7.55;1.00;;;;;20.20;100893.00;;;;5069053;28;20615;-78
2022/06/09 04:57:41;;;;;;;2.22;1.50;;;;;20.20;100894.00;;;;5067850;28;20573;-78
2022/06/09 05:00:11;;;;;;;2.42;1.30;;;;;20.30;100903.00;;;;5063204;28;20633;-78
2022/06/09 05:02:39;;;;;;;3.92;1.17;;;;;20.30;100899.00;;;;5061723;28;20227;-78
2022/06/09 05:05:07;;;;;;;1.65;1.00;;;;;20.40;100907.00;;;;5064065;28;20211;-77
2022/06/09 05:07:36;;;;;;;1.52;1.10;;;;;20.40;100914.00;;;;5058777;28;20210;-78
2022/06/09 05:10:07;;;;;;;2.28;1.00;;;;;20.50;100917.00;;;;5067815;28;20202;-77
2022/06/09 05:12:34;;;;;;;3.17;1.20;;;;;20.60;100909.00;;;;5067527;28;20226;-78
2022/06/09 05:15:03;;;;;;;3.55;1.05;;;;;20.60;100919.00;;;;5064204;28;20199;-77
2022/06/09 05:17:30;;;;;;;2.63;1.13;;;;;20.70;100923.00;;;;5066346;28;20943;-78
2022/06/09 05:19:58;;;;;;;4.57;1.05;;;;;20.70;100933.00;;;;5068055;28;20221;-78
2022/06/09 05:22:25;;;;;;;2.88;0.95;;;;;20.80;100933.00;;;;5067793;28;20868;-78
2022/06/09 05:24:57;;;;;;;2.85;1.27;;;;;20.90;100942.00;;;;5059539;28;20202;-78
2022/06/09 05:27:25;;;;;;;3.38;1.20;;;;;20.90;100943.00;;;;5067651;28;20576;-78
2022/06/09 05:29:52;;;;;;;3.40;1.45;;;;;21.00;100941.00;;;;5069034;28;20211;-78
2022/06/09 05:32:20;;;;;;;2.60;0.90;;;;;21.00;100948.00;;;;5066295;28;20201;-78
2022/06/09 05:34:47;;;;;;;3.85;0.90;;;;;21.10;100957.00;;;;5066036;28;20572;-77
2022/06/09 05:37:14;;;;;;;6.15;0.80;;;;;21.20;100956.00;;;;5066459;28;20199;-79
2022/06/09 05:45:13;;;;;;;5.05;1.10;;;;;21.40;100974.00;;;;5053979;28;20723;-78
2022/06/09 05:47:40;;;;;;;0.73;0.55;;;;;21.50;100973.00;;;;5063394;28;20195;-77
2022/06/09 05:50:09;;;;;;;2.78;0.95;;;;;21.60;100981.00;;;;5068324;28;20202;-76
2022/06/09 05:52:37;;;;;;;2.88;1.00;;;;;21.60;100985.00;;;;5066416;28;20674;-78
2022/06/09 05:55:07;;;;;;;2.58;0.98;;;;;21.70;100985.00;;;;5063134;28;20214;-77
2022/06/09 05:57:37;;;;;;;2.22;1.02;;;;;21.80;100991.00;;;;5063694;28;20195;-79
2022/06/09 06:00:06;;;;;;;1.70;0.77;;;;;21.90;100996.00;;;;5060917;28;20234;-78
2022/06/09 06:02:33;;;;;;;3.00;0.80;;;;;21.90;101000.00;;;;5065411;28;20766;-77
2022/06/09 06:05:00;;;;;;;2.75;0.73;;;;;21.90;101016.00;;;;5067476;28;20202;-78
2022/06/09 06:07:28;;;;;;;3.15;1.15;;;;;21.90;101015.00;;;;5066904;28;20195;-78
2022/06/09 06:09:55;;;;;;;1.23;0.60;;;;;21.90;101027.00;;;;5068078;28;20194;-79
2022/06/09 06:12:22;;;;;;;3.10;1.27;;;;;21.90;101022.00;;;;5067130;28;20230;-79
2022/06/09 06:14:51;;;;;;;1.58;0.70;;;;;22.00;101027.00;;;;5066263;28;20195;-79
2022/06/09 06:17:18;;;;;;;1.08;0.65;;;;;22.00;101026.00;;;;5065865;28;20198;-78
2022/06/09 06:19:45;;;;;;;1.27;0.80;;;;;22.10;101029.00;;;;5067187;28;20218;-79
2022/06/09 06:22:13;;;;;;;3.05;1.27;;;;;22.10;101041.00;;;;5067471;28;20341;-77
2022/06/09 06:24:40;;;;;;;1.98;0.80;;;;;22.20;101047.00;;;;5068346;28;20194;-78
2022/06/09 06:27:07;;;;;;;3.03;1.15;;;;;22.30;101050.00;;;;5068551;28;20209;-77
2022/06/09 06:29:35;;;;;;;0.93;0.65;;;;;22.30;101047.00;;;;5066966;28;20218;-78
2022/06/09 06:32:04;;;;;;;2.75;1.17;;;;;22.40;101050.00;;;;5067139;28;20207;-78
2022/06/09 06:34:31;;;;;;;4.82;0.75;;;;;22.40;101061.00;;;;5068016;28;20210;-77
2022/06/09 06:36:58;;;;;;;3.80;0.98;;;;;22.50;101058.00;;;;5067443;28;20207;-77
2022/06/09 06:39:25;;;;;;;2.92;1.05;;;;;22.50;101064.00;;;;5066620;28;20191;-78
2022/06/09 06:41:53;;;;;;;3.90;1.00;;;;;22.50;101068.00;;;;5067615;28;20230;-78
2022/06/09 06:44:20;;;;;;;1.25;0.57;;;;;22.60;101072.00;;;;5067513;28;20207;-77
2022/06/09 06:46:47;;;;;;;1.77;0.73;;;;;22.60;101083.00;;;;5066562;28;20211;-78
2022/06/09 06:49:16;;;;;;;2.83;0.90;;;;;22.60;101083.00;;;;5060049;28;20210;-77
2022/06/09 06:51:43;;;;;;;2.05;0.80;;;;;22.70;101086.00;;;;5067521;28;20206;-77
2022/06/09 06:54:11;;;;;;;1.50;0.60;;;;;22.70;101091.00;;;;5068164;28;20214;-78
2022/06/09 06:56:38;;;;;;;1.23;0.52;;;;;22.70;101103.00;;;;5068108;28;20203;-78
2022/06/09 06:59:05;;;;;;;1.50;0.80;;;;;22.80;101106.00;;;;5067197;28;20198;-78
2022/06/09 07:01:34;;;;;;;1.67;0.63;;;;;22.80;101108.00;;;;5062426;28;20218;-77
2022/06/09 07:04:01;;;;;;;1.75;0.70;;;;;22.80;101109.00;;;;5063432;28;20205;-77
2022/06/09 07:06:30;;;;;;;2.80;0.90;;;;;22.80;101114.00;;;;5064813;28;20199;-79
2022/06/09 07:08:57;;;;;;;2.88;0.90;;;;;22.80;101105.00;;;;5061662;28;20680;-78
2022/06/09 07:11:25;;;;;;;3.90;1.02;;;;;22.90;101118.00;;;;5065432;28;20997;-78
2022/06/09 07:13:52;;;;;;;1.73;1.00;;;;;22.90;101115.00;;;;5061811;28;20219;-78
2022/06/09 07:16:19;;;;;;;2.28;0.77;;;;;23.00;101124.00;;;;5054744;28;20191;-77
2022/06/09 07:18:47;;;;;;;1.52;0.88;;;;;23.00;101125.00;;;;5062562;28;20195;-78
2022/06/09 07:21:16;;;;;;;3.15;0.73;;;;;23.00;101129.00;;;;5070763;28;20195;-78
2022/06/09 07:23:45;;;;;;;6.05;1.00;;;;;22.90;101133.00;;;;5069908;28;20554;-78
2022/06/09 07:26:13;;;;;;;5.80;1.00;;;;;22.90;101138.00;;;;5069285;28;20199;-79
2022/06/09 07:28:41;;;;;;;3.88;0.85;;;;;22.90;101144.00;;;;5066557;28;20207;-78
2022/06/09 07:31:08;;;;;;;1.42;0.60;;;;;22.80;101146.00;;;;5069756;28;20676;-79
2022/06/09 07:33:38;;;;;;;1.50;0.90;;;;;22.80;101140.00;;;;5067542;28;20584;-78
2022/06/09 07:36:08;;;;;;;4.15;1.02;;;;;22.80;101145.00;;;;5062833;28;20260;-79
2022/06/09 07:38:36;;;;;;;1.25;0.70;;;;;22.80;101146.00;;;;5069033;28;20211;-78
2022/06/09 07:41:05;;;;;;;1.85;0.82;;;;;22.70;101147.00;;;;5067497;28;20191;-78
2022/06/09 07:43:32;;;;;;;1.73;0.63;;;;;22.70;101154.00;;;;5065279;28;20235;-78
2022/06/09 07:45:59;;;;;;;1.63;0.77;;;;;22.70;101152.00;;;;5066994;28;20194;-78
2022/06/09 07:48:27;;;;;;;1.30;1.10;;;;;22.70;101148.00;;;;5070076;28;20210;-78
2022/06/09 07:50:54;;;;;;;1.40;1.13;;;;;22.70;101149.00;;;;5067068;28;20569;-78
2022/06/09 07:53:23;;;;;;;3.20;1.30;;;;;22.70;101151.00;;;;5057594;28;20573;-79
2022/06/09 07:55:51;;;;;;;2.03;1.10;;;;;22.70;101147.00;;;;5067150;28;20203;-79
2022/06/09 07:58:20;;;;;;;2.75;1.20;;;;;22.70;101148.00;;;;5064253;28;20202;-79
2022/06/09 08:00:48;;;;;;;2.15;0.98;;;;;22.80;101153.00;;;;5067861;28;20199;-78
2022/06/09 08:03:18;;;;;;;3.17;1.10;;;;;22.80;101154.00;;;;5069181;28;20206;-78
2022/06/09 08:05:46;;;;;;;4.45;1.42;;;;;22.90;101158.00;;;;5064288;28;20206;-78
2022/06/09 08:08:14;;;;;;;1.35;1.13;;;;;23.00;101167.00;;;;5067236;28;20210;-78
2022/06/09 08:10:43;;;;;;;4.22;1.20;;;;;23.20;101164.00;;;;5065614;28;20206;-79
2022/06/09 08:13:12;;;;;;;3.13;0.95;;;;;23.30;101165.00;;;;5056096;28;20298;-78
2022/06/09 08:15:42;;;;;;;3.38;1.40;;;;;23.40;101169.00;;;;5053226;28;20195;-78
2022/06/09 08:18:10;;;;;;;0.98;0.88;;;;;23.50;101169.00;;;;5068050;28;20662;-78
2022/06/09 08:20:40;;;;;;;3.22;1.30;;;;;23.50;101179.00;;;;5069772;28;20203;-78
2022/06/09 08:23:11;;;;;;;3.53;1.08;;;;;23.70;101187.00;;;;5069330;28;20214;-77
2022/06/09 08:25:41;;;;;;;4.97;1.60;;;;;23.80;101187.00;;;;5069180;28;20190;-78
2022/06/09 08:28:11;;;;;;;2.03;1.10;;;;;23.90;101192.00;;;;5068750;28;20198;-77
2022/06/09 08:30:40;;;;;;;1.80;1.10;;;;;23.90;101201.00;;;;5063205;28;20204;-78
2022/06/09 08:33:08;;;;;;;2.25;1.30;;;;;23.90;101200.00;;;;5049294;28;20254;-77
2022/06/09 08:35:36;;;;;;;2.50;1.30;;;;;24.00;101203.00;;;;5063281;28;20291;-78
2022/06/09 08:38:04;;;;;;;2.75;1.40;;;;;24.00;101208.00;;;;5068217;28;20183;-78
2022/06/09 08:40:41;;;;;;;2.65;1.52;;;;;24.10;101215.00;;;;5066181;28;20195;-78
2022/06/09 08:43:20;;;;;;;2.15;1.40;;;;;24.20;101215.00;;;;5069018;28;20234;-78
2022/06/09 08:45:53;;;;;;;2.65;1.27;;;;;24.30;101223.00;;;;5066822;28;20199;-79
2022/06/09 08:48:23;;;;;;;2.97;1.10;;;;;24.50;101220.00;;;;5067778;28;20206;-79
2022/06/09 08:51:01;;;;;;;4.00;1.45;;;;;24.50;101229.00;;;;5068195;28;20194;-77
2022/06/09 08:53:34;;;;;;;3.72;1.52;;;;;24.60;101225.00;;;;5066175;28;20198;-78
2022/06/09 08:56:09;;;;;;;4.10;1.40;;;;;24.70;101226.00;;;;5061654;28;20202;-79
2022/06/09 08:58:42;;;;;;;1.58;1.10;;;;;24.90;101228.00;;;;5067473;28;20190;-78
2022/06/09 09:01:24;;;;;;;2.25;1.13;;;;;24.90;101228.00;;;;5067186;28;20196;-79
2022/06/09 09:03:55;;;;;;;1.08;0.98;;;;;25.10;101228.00;;;;5068210;28;20251;-79
2022/06/09 09:06:27;;;;;;;2.83;0.90;;;;;25.10;101238.00;;;;5060338;28;20207;-78
2022/06/09 09:09:01;;;;;;;3.90;0.90;;;;;25.10;101238.00;;;;5067663;28;20203;-79
2022/06/09 09:11:43;;;;;;;2.38;1.42;;;;;25.10;101239.00;;;;5068139;28;20214;-79
2022/06/09 09:14:15;;;;;;;2.95;1.00;;;;;25.20;101245.00;;;;5067772;28;20222;-79
2022/06/09 09:16:48;;;;;;;2.05;0.60;;;;;25.20;101243.00;;;;5068261;28;20226;-78
2022/06/09 09:19:26;;;;;;;1.75;0.60;;;;;25.20;101250.00;;;;5067744;28;20202;-80
2022/06/09 09:22:04;;;;;;;4.63;0.90;;;;;25.20;101250.00;;;;5060722;28;20198;-79
2022/06/09 09:24:40;;;;;;;0.82;0.65;;;;;25.30;101250.00;;;;5066865;28;20736;-79
2022/06/09 09:27:26;;;;;;;3.03;1.05;;;;;25.30;101256.00;;;;5066020;28;20202;-79
2022/06/09 09:30:11;;;;;;;3.28;0.95;;;;;25.40;101261.00;;;;5068683;28;20198;-80
2022/06/09 09:32:44;;;;;;;2.22;0.77;;;;;25.40;101257.00;;;;5066464;28;20199;-79
2022/06/09 09:35:17;;;;;;;3.55;0.65;;;;;25.50;101264.00;;;;5065905;28;20215;-78
2022/06/09 09:37:48;;;;;;;2.92;0.95;;;;;25.50;101263.00;;;;5064916;28;20210;-79
2022/06/09 09:40:20;;;;;;;0.95;0.43;;;;;25.60;101272.00;;;;5064246;28;20199;-78
2022/06/09 09:42:50;;;;;;;3.58;1.13;;;;;25.70;101276.00;;;;5062072;28;20241;-79
2022/06/09 09:45:20;;;;;;;2.53;0.93;;;;;25.90;101280.00;;;;5067283;28;20575;-78
2022/06/09 09:47:54;;;;;;;1.08;0.60;;;;;26.00;101285.00;;;;5067500;28;20195;-79
2022/06/09 09:50:27;;;;;;;1.25;0.80;;;;;26.00;101292.00;;;;5064965;28;20202;-78
2022/06/09 09:53:02;;;;;;;5.20;1.17;;;;;26.00;101295.00;;;;5067180;28;20199;-78
2022/06/09 09:55:34;;;;;;;1.95;0.75;;;;;25.90;101303.00;;;;5061323;28;20195;-77
2022/06/09 09:58:38;;;;;;;2.42;0.57;;;;;25.80;101309.00;;;;5048333;28;20223;-78
2022/06/09 10:01:26;;;;;;;2.33;0.77;;;;;25.90;101304.00;;;;4994702;28;20279;-78
2022/06/09 10:09:34;;;;;;;3.92;0.93;;;;;26.00;101318.00;;;;5066318;28;20202;-79
2022/06/09 10:12:08;;;;;;;2.67;0.60;;;;;26.10;101317.00;;;;5066140;28;20198;-80
2022/06/09 10:14:42;;;;;;;2.78;0.60;;;;;26.10;101324.00;;;;5061093;28;20199;-80
2022/06/09 10:17:23;;;;;;;3.13;0.88;;;;;26.10;101326.00;;;;5064969;28;20255;-79
2022/06/09 10:19:59;;;;;;;1.20;0.52;;;;;26.20;101329.00;;;;5066111;28;20664;-80
2022/06/09 10:22:28;;;;;;;2.40;0.75;;;;;26.30;101324.00;;;;5067677;28;20687;-79
2022/06/09 10:25:00;;;;;;;2.80;0.60;;;;;26.30;101332.00;;;;5066723;28;20696;-80
2022/06/09 10:27:36;;;;;;;3.72;0.80;;;;;26.30;101331.00;;;;5065636;28;20207;-81
2022/06/09 10:30:12;;;;;;;1.15;0.47;;;;;26.40;101338.00;;;;5065411;28;20248;-81
2022/06/09 10:32:47;;;;;;;1.77;0.80;;;;;26.40;101347.00;;;;5067952;28;20202;-79
2022/06/09 10:35:21;;;;;;;1.65;0.70;;;;;26.40;101351.00;;;;5067712;28;20664;-80
2022/06/09 10:37:54;;;;;;;3.45;0.70;;;;;26.40;101359.00;;;;5066079;28;20208;-79
2022/06/09 10:40:26;;;;;;;4.15;0.65;;;;;26.40;101355.00;;;;5065096;28;20223;-80
2022/06/09 10:43:00;;;;;;;2.05;0.60;;;;;26.40;101363.00;;;;5066100;28;20473;-80
2022/06/09 10:45:33;;;;;;;2.05;0.57;;;;;26.40;101369.00;;;;5066282;28;20203;-79
2022/06/09 10:56:49;;;;;;;3.33;0.60;;;;;26.60;101370.00;;;;5065762;28;20238;-79
2022/06/09 10:59:23;;;;;;;1.80;0.73;;;;;26.70;101373.00;;;;5066807;28;20297;-80
2022/06/09 11:01:51;;;;;;;1.83;0.77;;;;;26.80;101378.00;;;;5069036;28;20202;-79
2022/06/09 11:04:19;;;;;;;3.65;0.75;;;;;26.90;101374.00;;;;5062684;28;20219;-80
2022/06/09 11:07:00;;;;;;;1.80;0.70;;;;;26.90;101386.00;;;;5070045;28;20206;-80
2022/06/09 11:09:34;;;;;;;3.35;0.90;;;;;26.90;101374.00;;;;5070240;28;20202;-80
2022/06/09 11:12:13;;;;;;;0.50;0.50;;;;;26.90;101390.00;;;;5070765;28;20203;-80
2022/06/09 11:15:02;;;;;;;2.95;0.95;;;;;26.90;101383.00;;;;5069938;28;20182;-80
2022/06/09 11:17:47;;;;;;;1.70;0.52;;;;;26.90;101383.00;;;;5065872;28;20199;-79
2022/06/09 11:20:25;;;;;;;2.28;0.50;;;;;27.00;101389.00;;;;5064673;28;20209;-79
2022/06/09 11:23:02;;;;;;;3.78;0.77;;;;;27.00;101393.00;;;;5069576;28;20696;-79
2022/06/09 11:25:42;;;;;;;1.45;0.50;;;;;27.00;101397.00;;;;5067128;28;20676;-80
2022/06/09 11:28:30;;;;;;;3.30;0.98;;;;;27.00;101401.00;;;;5069282;28;20195;-79
2022/06/09 11:31:18;;;;;;;3.08;0.55;;;;;27.00;101401.00;;;;5068827;28;20202;-80
2022/06/09 11:34:01;;;;;;;2.80;0.75;;;;;27.00;101394.00;;;;5069580;28;20236;-80
2022/06/09 11:36:33;;;;;;;1.75;0.50;;;;;27.10;101390.00;;;;5067537;28;20195;-80
2022/06/09 11:39:20;;;;;;;6.32;0.88;;;;;27.00;101400.00;;;;5064662;28;20195;-80
2022/06/09 11:41:58;;;;;;;6.25;1.13;;;;;27.00;101399.00;;;;5069513;28;20647;-80
2022/06/09 11:44:28;;;;;;;3.10;0.75;;;;;26.90;101400.00;;;;5063068;28;20233;-80
2022/06/09 11:47:00;;;;;;;3.72;0.90;;;;;26.80;101404.00;;;;5068395;28;20226;-78
2022/06/09 11:49:33;;;;;;;1.80;0.93;;;;;26.70;101406.00;;;;5070543;28;20203;-79
2022/06/09 11:52:03;;;;;;;4.18;0.90;;;;;26.70;101403.00;;;;5070581;28;20286;-79
2022/06/09 11:55:01;;;;;;;1.83;1.00;;;;;26.60;101399.00;;;;5070142;28;20290;-79
2022/06/09 11:57:45;;;;;;;1.52;0.73;;;;;26.60;101404.00;;;;5048059;28;20575;-80
2022/06/09 12:00:38;;;;;;;1.10;0.65;;;;;26.60;101408.00;;;;5070219;28;20198;-79
2022/06/09 12:03:25;;;;;;;6.32;1.33;;;;;26.60;101412.00;;;;5069336;28;20222;-79
2022/06/09 12:05:58;;;;;;;3.40;1.00;;;;;26.70;101415.00;;;;5066592;28;20202;-79
2022/06/09 12:08:34;;;;;;;4.00;1.00;;;;;26.60;101420.00;;;;5069846;28;20191;-79
2022/06/09 12:11:12;;;;;;;4.20;1.05;;;;;26.60;101412.00;;;;5068057;28;21608;-79
2022/06/09 12:14:00;;;;;;;1.60;0.70;;;;;26.60;101419.00;;;;5066900;28;20259;-79
2022/06/09 12:16:32;;;;;;;3.90;1.20;;;;;26.70;101414.00;;;;5067754;28;20675;-79
2022/06/09 12:19:15;;;;;;;1.90;0.60;;;;;26.70;101409.00;;;;5069358;28;20672;-78
2022/06/09 12:21:44;;;;;;;3.47;0.70;;;;;26.80;101425.00;;;;5069220;28;20244;-80
2022/06/09 12:24:31;;;;;;;2.10;1.00;;;;;26.70;101418.00;;;;5067076;28;20879;-79
2022/06/09 12:27:22;;;;;;;3.20;0.82;;;;;26.60;101420.00;;;;5069191;28;20265;-79
2022/06/09 12:30:21;;;;;;;1.50;0.50;;;;;26.70;101431.00;;;;5068324;28;20205;-79
2022/06/09 12:32:51;;;;;;;4.72;1.10;;;;;26.80;101438.00;;;;5062811;28;20210;-79
2022/06/09 12:35:28;;;;;;;3.35;1.02;;;;;26.80;101439.00;;;;5068965;28;20691;-79
2022/06/09 12:38:05;;;;;;;1.42;0.65;;;;;26.80;101430.00;;;;5069517;28;20248;-80
2022/06/09 12:40:44;;;;;;;2.47;0.95;;;;;26.80;101437.00;;;;5067467;28;20194;-78
2022/06/09 12:43:28;;;;;;;4.35;0.90;;;;;26.80;101441.00;;;;5069730;28;20295;-78
2022/06/09 12:46:05;;;;;;;2.38;1.10;;;;;26.80;101453.00;;;;5050896;28;20208;-78
2022/06/09 12:48:35;;;;;;;2.30;1.17;;;;;26.90;101456.00;;;;5061379;28;20194;-78
2022/06/09 12:51:08;;;;;;;1.77;0.80;;;;;27.00;101467.00;;;;5068008;28;20278;-78